LIPSLIPQ

Guest
Details From LIPS - Istrana
To LIPQ - Trieste Ronchi Dei Legionari
Flight Number -
Tags Generated
Created
Modified
Stats Distance 58 nm / 108 km
Max Altitude 0 ft / 0 m
Waypoints 2
Social Downloads 0
Likes 0
Share VATSIM

Download

Looking for another format? Having issues loading an existing format? Contact us
Advertisement - Login to hide

Notes

Generated

Route

LIPS LIPQ

ID Type Via Altitude Latitude Longitude Leg Dist Tot Dist Heading (true) Name
O LIPS APT - 0 ft / 0 m 45.68257˚ 12.06821˚ - 0 nm - -
O LIPQ APT - 0 ft / 0 m 45.82797˚ 13.44736˚ 58 nm 58 nm 81° / 82° -

Altitude Profile

Advertisement - Login to hide

LIPS

Details ICAO LIPS
Name Istrana
Region Italy
Timezone Europe/Rome (UTC+1.0)
Stats Elevation 137 ft / 42 m (AMSL)
Location 45.684441° 12.087231°
Runways 1
Magnetic Variation 3.130° E

METAR

LIPS 120755Z 20002KT 9999 SCT025 BKN060 09/07 Q1005 RMK BKN VIS MIN 9999 WIND THR26 20002KT WIND THR08 19002KT BLU

Decode

TAF

Not found

Departure Runways

ID Width Length Bearing (true) Bearing (mag) Surface Threshold Offset Overrun Length
08 105 ft / 32 m 9,791 ft / 2,984 m 81.97° 78.84° Asphalt 956 ft / 291 m 0 ft / 0 m
26 105 ft / 32 m 9,791 ft / 2,984 m 262.00° 258.87° Asphalt 953 ft / 290 m 0 ft / 0 m

LIPQ

Details ICAO LIPQ (TRS)
Name Ronchi Dei Legionari
Region Italy
Timezone Europe/Rome (UTC+1.0)
Stats Elevation 37 ft / 11 m (AMSL)
Location 45.827857° 13.466663°
Runways 1
Magnetic Variation 3.430° E

METAR

LIPQ 120820Z 21006KT 8000 SCT010 BKN040 14/12 Q1008

Decode

TAF

TAF LIPQ 120500Z 1206/1306 16012KT 9999 SCT020 TEMPO 1206/1212 RA

Decode

Destination Runways

ID Width Length Bearing (true) Bearing (mag) Surface Threshold Offset Overrun Length
09 148 ft / 45 m 9,819 ft / 2,993 m 90.42° 86.99° Asphalt 823 ft / 251 m 0 ft / 0 m
27 148 ft / 45 m 9,819 ft / 2,993 m 270.44° 267.01° Asphalt 10 ft / 3 m 190 ft / 58 m

Approach Navaids

Runway Type Ident Frequency Range Bearing (true) Bearing (mag) Slope Elevation
09 Localiser RNC 110.75 MHz 18 nm / 33 km 90.43° 87.00° - 43 ft / 13 m (AMSL)
09 Glidescope RNC 110.75 MHz 10 nm / 19 km 90.43° 87.00° 3.00° 82 ft / 25 m (AMSL)
09 DME RNC 110.75 MHz 18 nm / 33 km - - - 53 ft / 16 m (AMSL)